Federal Yukina — VRHN7 — position and weather

sailwx.info

Track history (hours):
 
Tides and Currents Weather Stations Pressure Air Temp Water Temp Dewpoint Dewpoint Depression Visibility Wind Speed Wind Dir Waves Ship Positions

Federal Yukina

Last reported at 2018-Feb-22 10:58 UTC. Time now 2018-Feb-22 11:14 UTC.
Position N 19°12' W 096°08'.

Length 200 m; draft 7.9 m.

Type: Cargo ship. MMSI: 477959900.

Date/timePositionNaut miles runAvg speedWind from/ knotsBaromVisibWave heightAir tempDewpointWater temp
2018-Feb-22 10:58N 19°12' W 096°08'0 0.0
2018-Feb-22 10:25N 19°12' W 096°08'0 0.0
2018-Feb-22 09:58N 19°12' W 096°08'0 0.0
2018-Feb-22 09:28N 19°12' W 096°08'0 0.0
2018-Feb-22 08:58N 19°12' W 096°08'0 0.0
2018-Feb-22 08:28N 19°12' W 096°08'0 0.0
2018-Feb-22 07:58N 19°12' W 096°08'0 0.0
2018-Feb-22 07:28N 19°12' W 096°08'0 0.0
2018-Feb-22 06:58N 19°12' W 096°08'0 0.0
2018-Feb-22 06:28N 19°12' W 096°08'0 0.0
2018-Feb-22 05:58N 19°12' W 096°08'0 0.0
2018-Feb-22 05:28N 19°12' W 096°08'0 0.0
2018-Feb-22 04:58N 19°12' W 096°08'0 0.0
2018-Feb-22 04:28N 19°12' W 096°08'0 0.0
2018-Feb-22 03:55N 19°12' W 096°08'0 0.0
2018-Feb-22 03:28N 19°12' W 096°08'0 0.0
2018-Feb-22 02:58N 19°12' W 096°08'0 0.0
2018-Feb-22 02:28N 19°12' W 096°08'0 0.0
2018-Feb-22 01:58N 19°12' W 096°08'0 0.1
2018-Feb-22 01:30N 19°12' W 096°08'2 4.1
2018-Feb-22 01:00N 19°12' W 096°06'3 6.1
2018-Feb-22 00:30N 19°12' W 096°03'3 5.5
2018-Feb-22 00:00N 19°12' W 095°60'3 5.8
2018-Feb-21 23:30N 19°13' W 095°57'2 3.6
2018-Feb-21 23:00N 19°14' W 095°56'4 8.2
2018-Feb-21 22:30N 19°15' W 095°51'712.2
2018-Feb-21 21:55N 19°15' W 095°44'612.9
2018-Feb-21 21:25N 19°18' W 095°38'55113.0
2018-Feb-20 03:00N 22°42' W 086°30'17513.5 090 / 151024.4 5.4 26.021.521.0
2018-Feb-19 14:00N 23°18' W 083°24'25211.0 090 / 221026.4 5.4 24.021.020.0
2018-Feb-18 15:00N 25°33' W 079°30'3171.6
2018-Feb-18 15:00N 25°30' W 079°30'1813.6 090 / 151028.4 5.4 25.018.820.0
2018-Feb-18 13:38N 25°48' W 079°28'1411.5
2018-Feb-18 12:25N 26°02' W 079°25'42712.8
2018-Feb-17 03:00N 26°06' W 071°30'31913.9 080 / 31028.4 5.4 21.016.119.0
2018-Feb-16 04:00N 26°36' W 065°36'35013.0 080 / 51032.4 5.4 21.016.119.0
2018-Feb-15 01:00N 27°12' W 059°06'32614.2 020 / 71036.4 5.4 22.015.420.0
2018-Feb-14 02:00N 27°42' W 053°00'   080 / 71036.4 5.4 21.016.119.0
Track history (hours):
 
Tides and Currents Weather Stations Pressure Air Temp Water Temp Dewpoint Dewpoint Depression Visibility Wind Speed Wind Dir Waves Ship Positions

Federal Yukina

Last reported at 2018-Feb-22 10:58 UTC. Time now 2018-Feb-22 11:14 UTC.
Position N 19°12' W 096°08'.

Length 200 m; draft 7.9 m.

Type: Cargo ship. MMSI: 477959900.

Date/timePositionNaut miles runAvg speedWind from/ knotsBaromVisibWave heightAir tempDewpointWater temp
2018-Feb-22 10:58N 19°12' W 096°08'0 0.0
2018-Feb-22 10:25N 19°12' W 096°08'0 0.0
2018-Feb-22 09:58N 19°12' W 096°08'0 0.0
2018-Feb-22 09:28N 19°12' W 096°08'0 0.0
2018-Feb-22 08:58N 19°12' W 096°08'0 0.0
2018-Feb-22 08:28N 19°12' W 096°08'0 0.0
2018-Feb-22 07:58N 19°12' W 096°08'0 0.0
2018-Feb-22 07:28N 19°12' W 096°08'0 0.0
2018-Feb-22 06:58N 19°12' W 096°08'0 0.0
2018-Feb-22 06:28N 19°12' W 096°08'0 0.0
2018-Feb-22 05:58N 19°12' W 096°08'0 0.0
2018-Feb-22 05:28N 19°12' W 096°08'0 0.0
2018-Feb-22 04:58N 19°12' W 096°08'0 0.0
2018-Feb-22 04:28N 19°12' W 096°08'0 0.0
2018-Feb-22 03:55N 19°12' W 096°08'0 0.0
2018-Feb-22 03:28N 19°12' W 096°08'0 0.0
2018-Feb-22 02:58N 19°12' W 096°08'0 0.0
2018-Feb-22 02:28N 19°12' W 096°08'0 0.0
2018-Feb-22 01:58N 19°12' W 096°08'0 0.1
2018-Feb-22 01:30N 19°12' W 096°08'2 4.1
2018-Feb-22 01:00N 19°12' W 096°06'3 6.1
2018-Feb-22 00:30N 19°12' W 096°03'3 5.5
2018-Feb-22 00:00N 19°12' W 095°60'3 5.8
2018-Feb-21 23:30N 19°13' W 095°57'2 3.6
2018-Feb-21 23:00N 19°14' W 095°56'4 8.2
2018-Feb-21 22:30N 19°15' W 095°51'712.2
2018-Feb-21 21:55N 19°15' W 095°44'612.9
2018-Feb-21 21:25N 19°18' W 095°38'55113.0
2018-Feb-20 03:00N 22°42' W 086°30'17513.5 090 / 151024.4 5.4 26.021.521.0
2018-Feb-19 14:00N 23°18' W 083°24'25211.0 090 / 221026.4 5.4 24.021.020.0
2018-Feb-18 15:00N 25°33' W 079°30'3171.6
2018-Feb-18 15:00N 25°30' W 079°30'1813.6 090 / 151028.4 5.4 25.018.820.0
2018-Feb-18 13:38N 25°48' W 079°28'1411.5
2018-Feb-18 12:25N 26°02' W 079°25'42712.8
2018-Feb-17 03:00N 26°06' W 071°30'31913.9 080 / 31028.4 5.4 21.016.119.0
2018-Feb-16 04:00N 26°36' W 065°36'35013.0 080 / 51032.4 5.4 21.016.119.0
2018-Feb-15 01:00N 27°12' W 059°06'32614.2 020 / 71036.4 5.4 22.015.420.0
2018-Feb-14 02:00N 27°42' W 053°00'   080 / 71036.4 5.4 21.016.119.0

Dump ship's entire track history